sensor_id;sensor_type;location;lat;lon;timestamp;temperature;humidity
31783;DHT22;18351;47.560;9.708;2023-06-22T00:01:09;21.30;99.90
31783;DHT22;18351;47.560;9.708;2023-06-22T00:03:34;21.40;99.90
31783;DHT22;18351;47.560;9.708;2023-06-22T00:06:00;21.40;99.90
31783;DHT22;18351;47.560;9.708;2023-06-22T00:08:26;21.50;99.90
31783;DHT22;18351;47.560;9.708;2023-06-22T00:10:51;21.50;99.90
31783;DHT22;18351;47.560;9.708;2023-06-22T00:13:17;21.60;99.90
31783;DHT22;18351;47.560;9.708;2023-06-22T00:15:43;21.70;99.90
31783;DHT22;18351;47.560;9.708;2023-06-22T00:18:10;21.70;99.90
31783;DHT22;18351;47.560;9.708;2023-06-22T00:20:36;21.70;99.90
31783;DHT22;18351;47.560;9.708;2023-06-22T00:23:03;21.60;99.90
31783;DHT22;18351;47.560;9.708;2023-06-22T00:25:37;21.60;99.90
31783;DHT22;18351;47.560;9.708;2023-06-22T00:28:04;21.60;99.90
31783;DHT22;18351;47.560;9.708;2023-06-22T00:30:31;21.60;99.90
31783;DHT22;18351;47.560;9.708;2023-06-22T00:32:57;21.60;99.90
31783;DHT22;18351;47.560;9.708;2023-06-22T00:35:25;21.60;99.90
31783;DHT22;18351;47.560;9.708;2023-06-22T00:37:58;21.60;99.90
31783;DHT22;18351;47.560;9.708;2023-06-22T00:40:29;21.60;99.90
31783;DHT22;18351;47.560;9.708;2023-06-22T00:42:55;21.60;99.90
31783;DHT22;18351;47.560;9.708;2023-06-22T00:45:22;21.60;99.90
31783;DHT22;18351;47.560;9.708;2023-06-22T00:47:52;21.60;99.90
31783;DHT22;18351;47.560;9.708;2023-06-22T00:50:21;21.60;99.90
31783;DHT22;18351;47.560;9.708;2023-06-22T00:52:52;21.50;99.90
31783;DHT22;18351;47.560;9.708;2023-06-22T00:55:19;21.50;99.90
31783;DHT22;18351;47.560;9.708;2023-06-22T00:57:46;21.50;99.90
31783;DHT22;18351;47.560;9.708;2023-06-22T01:00:13;21.50;99.90
31783;DHT22;18351;47.560;9.708;2023-06-22T01:02:40;21.40;99.90
31783;DHT22;18351;47.560;9.708;2023-06-22T01:05:06;21.40;99.90
31783;DHT22;18351;47.560;9.708;2023-06-22T01:07:39;21.40;99.90
31783;DHT22;18351;47.560;9.708;2023-06-22T01:10:16;21.40;99.90
31783;DHT22;18351;47.560;9.708;2023-06-22T01:12:58;21.40;99.90
31783;DHT22;18351;47.560;9.708;2023-06-22T01:15:40;21.30;99.90
31783;DHT22;18351;47.560;9.708;2023-06-22T01:18:08;21.30;99.90
31783;DHT22;18351;47.560;9.708;2023-06-22T01:20:35;21.40;99.90
31783;DHT22;18351;47.560;9.708;2023-06-22T01:25:57;21.10;99.90
31783;DHT22;18351;47.560;9.708;2023-06-22T01:28:54;21.10;99.90
31783;DHT22;18351;47.560;9.708;2023-06-22T01:31:25;20.90;99.90
31783;DHT22;18351;47.560;9.708;2023-06-22T01:33:54;20.90;99.90
31783;DHT22;18351;47.560;9.708;2023-06-22T01:36:22;20.80;99.90
31783;DHT22;18351;47.560;9.708;2023-06-22T01:38:48;20.70;99.90
31783;DHT22;18351;47.560;9.708;2023-06-22T01:41:16;20.70;99.90
31783;DHT22;18351;47.560;9.708;2023-06-22T01:43:42;20.50;99.90
31783;DHT22;18351;47.560;9.708;2023-06-22T01:46:09;20.40;99.90
31783;DHT22;18351;47.560;9.708;2023-06-22T01:48:35;20.30;99.90
31783;DHT22;18351;47.560;9.708;2023-06-22T01:51:01;20.20;99.90
31783;DHT22;18351;47.560;9.708;2023-06-22T01:53:27;20.10;99.90
31783;DHT22;18351;47.560;9.708;2023-06-22T01:55:52;19.90;99.90
31783;DHT22;18351;47.560;9.708;2023-06-22T01:58:20;19.80;99.90
31783;DHT22;18351;47.560;9.708;2023-06-22T02:00:53;19.70;99.90
31783;DHT22;18351;47.560;9.708;2023-06-22T02:03:28;19.70;99.90
31783;DHT22;18351;47.560;9.708;2023-06-22T02:06:01;19.60;99.90
31783;DHT22;18351;47.560;9.708;2023-06-22T02:08:38;19.60;99.90
31783;DHT22;18351;47.560;9.708;2023-06-22T02:11:06;19.60;99.90
31783;DHT22;18351;47.560;9.708;2023-06-22T02:13:32;19.60;99.90
31783;DHT22;18351;47.560;9.708;2023-06-22T02:15:58;19.60;99.90
31783;DHT22;18351;47.560;9.708;2023-06-22T02:18:24;19.60;99.90
31783;DHT22;18351;47.560;9.708;2023-06-22T02:20:50;19.60;99.90
31783;DHT22;18351;47.560;9.708;2023-06-22T02:23:16;19.60;99.90
31783;DHT22;18351;47.560;9.708;2023-06-22T02:25:41;19.50;99.90
31783;DHT22;18351;47.560;9.708;2023-06-22T02:28:09;19.40;99.90
31783;DHT22;18351;47.560;9.708;2023-06-22T02:30:35;19.50;99.90
31783;DHT22;18351;47.560;9.708;2023-06-22T02:33:00;19.60;99.90
31783;DHT22;18351;47.560;9.708;2023-06-22T02:35:29;19.60;99.90
31783;DHT22;18351;47.560;9.708;2023-06-22T02:38:01;19.60;99.90
31783;DHT22;18351;47.560;9.708;2023-06-22T02:40:30;19.60;99.90
31783;DHT22;18351;47.560;9.708;2023-06-22T02:42:57;19.70;99.90
31783;DHT22;18351;47.560;9.708;2023-06-22T02:45:26;19.70;99.90
31783;DHT22;18351;47.560;9.708;2023-06-22T02:47:52;19.80;99.90
31783;DHT22;18351;47.560;9.708;2023-06-22T02:50:18;19.80;99.90
31783;DHT22;18351;47.560;9.708;2023-06-22T02:52:43;19.90;99.90
31783;DHT22;18351;47.560;9.708;2023-06-22T02:55:09;19.90;99.90
31783;DHT22;18351;47.560;9.708;2023-06-22T02:57:34;20.00;99.90
31783;DHT22;18351;47.560;9.708;2023-06-22T03:00:01;20.00;99.90
31783;DHT22;18351;47.560;9.708;2023-06-22T03:02:27;20.10;99.90
31783;DHT22;18351;47.560;9.708;2023-06-22T03:04:53;20.10;99.90
31783;DHT22;18351;47.560;9.708;2023-06-22T03:07:19;20.20;99.90
31783;DHT22;18351;47.560;9.708;2023-06-22T03:09:45;20.30;99.90
31783;DHT22;18351;47.560;9.708;2023-06-22T03:12:11;20.20;99.90
31783;DHT22;18351;47.560;9.708;2023-06-22T03:14:36;20.30;99.90
31783;DHT22;18351;47.560;9.708;2023-06-22T03:17:04;20.20;99.90
31783;DHT22;18351;47.560;9.708;2023-06-22T03:19:30;20.20;99.90
31783;DHT22;18351;47.560;9.708;2023-06-22T03:21:59;20.20;99.90
31783;DHT22;18351;47.560;9.708;2023-06-22T03:24:24;20.20;99.90
31783;DHT22;18351;47.560;9.708;2023-06-22T03:26:50;20.20;99.90
31783;DHT22;18351;47.560;9.708;2023-06-22T03:29:15;20.20;99.90
31783;DHT22;18351;47.560;9.708;2023-06-22T03:31:41;20.20;99.90
31783;DHT22;18351;47.560;9.708;2023-06-22T03:34:07;20.30;99.90
31783;DHT22;18351;47.560;9.708;2023-06-22T03:36:32;20.30;99.90
31783;DHT22;18351;47.560;9.708;2023-06-22T03:38:58;20.30;99.90
31783;DHT22;18351;47.560;9.708;2023-06-22T03:41:23;20.20;99.90
31783;DHT22;18351;47.560;9.708;2023-06-22T03:43:49;20.30;99.90
31783;DHT22;18351;47.560;9.708;2023-06-22T03:46:14;20.30;99.90
31783;DHT22;18351;47.560;9.708;2023-06-22T03:48:40;20.30;99.90
31783;DHT22;18351;47.560;9.708;2023-06-22T03:51:05;20.30;99.90
31783;DHT22;18351;47.560;9.708;2023-06-22T03:53:31;20.30;99.90
31783;DHT22;18351;47.560;9.708;2023-06-22T03:55:57;20.40;99.90
31783;DHT22;18351;47.560;9.708;2023-06-22T03:58:22;20.40;99.90
31783;DHT22;18351;47.560;9.708;2023-06-22T04:00:49;20.40;99.90
31783;DHT22;18351;47.560;9.708;2023-06-22T04:03:15;20.50;99.90
31783;DHT22;18351;47.560;9.708;2023-06-22T04:05:41;20.40;99.90
31783;DHT22;18351;47.560;9.708;2023-06-22T04:08:07;20.50;99.90
31783;DHT22;18351;47.560;9.708;2023-06-22T04:10:33;20.50;99.90
31783;DHT22;18351;47.560;9.708;2023-06-22T04:12:59;20.60;99.90
31783;DHT22;18351;47.560;9.708;2023-06-22T04:15:25;20.80;99.90
31783;DHT22;18351;47.560;9.708;2023-06-22T04:17:50;20.80;99.90
31783;DHT22;18351;47.560;9.708;2023-06-22T04:20:16;20.80;99.90
31783;DHT22;18351;47.560;9.708;2023-06-22T04:22:41;20.90;99.90
31783;DHT22;18351;47.560;9.708;2023-06-22T04:25:07;21.00;99.90
31783;DHT22;18351;47.560;9.708;2023-06-22T04:27:33;21.00;99.90
31783;DHT22;18351;47.560;9.708;2023-06-22T04:30:03;21.00;99.90
31783;DHT22;18351;47.560;9.708;2023-06-22T04:32:29;21.00;99.90
31783;DHT22;18351;47.560;9.708;2023-06-22T04:34:55;21.00;99.90
31783;DHT22;18351;47.560;9.708;2023-06-22T04:37:20;21.00;99.90
31783;DHT22;18351;47.560;9.708;2023-06-22T04:39:49;21.10;99.90
31783;DHT22;18351;47.560;9.708;2023-06-22T04:42:14;21.10;99.90
31783;DHT22;18351;47.560;9.708;2023-06-22T04:44:40;21.20;99.90
31783;DHT22;18351;47.560;9.708;2023-06-22T04:47:07;21.20;99.90
31783;DHT22;18351;47.560;9.708;2023-06-22T04:49:34;21.20;99.90
31783;DHT22;18351;47.560;9.708;2023-06-22T04:52:04;21.20;99.90
31783;DHT22;18351;47.560;9.708;2023-06-22T04:54:30;21.20;99.90
31783;DHT22;18351;47.560;9.708;2023-06-22T04:57:01;21.20;99.90
31783;DHT22;18351;47.560;9.708;2023-06-22T04:59:28;21.30;99.90
31783;DHT22;18351;47.560;9.708;2023-06-22T05:01:59;21.50;99.90
31783;DHT22;18351;47.560;9.708;2023-06-22T05:04:26;21.60;99.90
31783;DHT22;18351;47.560;9.708;2023-06-22T05:06:53;21.90;99.90
31783;DHT22;18351;47.560;9.708;2023-06-22T05:09:19;22.10;99.90
31783;DHT22;18351;47.560;9.708;2023-06-22T05:11:45;22.30;99.90
31783;DHT22;18351;47.560;9.708;2023-06-22T05:14:11;22.40;99.90
31783;DHT22;18351;47.560;9.708;2023-06-22T05:16:37;22.50;99.90
31783;DHT22;18351;47.560;9.708;2023-06-22T05:19:02;22.70;99.90
31783;DHT22;18351;47.560;9.708;2023-06-22T05:21:29;22.70;99.90
31783;DHT22;18351;47.560;9.708;2023-06-22T05:23:55;22.80;99.90
31783;DHT22;18351;47.560;9.708;2023-06-22T05:26:25;22.90;99.90
31783;DHT22;18351;47.560;9.708;2023-06-22T05:28:51;23.00;99.90
31783;DHT22;18351;47.560;9.708;2023-06-22T05:31:17;23.10;99.90
31783;DHT22;18351;47.560;9.708;2023-06-22T05:33:45;23.10;99.90
31783;DHT22;18351;47.560;9.708;2023-06-22T05:36:11;23.30;99.90
31783;DHT22;18351;47.560;9.708;2023-06-22T05:38:38;23.30;99.90
31783;DHT22;18351;47.560;9.708;2023-06-22T05:41:04;23.50;99.90
31783;DHT22;18351;47.560;9.708;2023-06-22T05:43:29;23.60;99.90
31783;DHT22;18351;47.560;9.708;2023-06-22T05:45:55;23.70;99.90
31783;DHT22;18351;47.560;9.708;2023-06-22T05:48:21;23.90;99.90
31783;DHT22;18351;47.560;9.708;2023-06-22T05:50:46;24.10;99.90
31783;DHT22;18351;47.560;9.708;2023-06-22T05:53:12;24.40;99.90
31783;DHT22;18351;47.560;9.708;2023-06-22T05:55:37;25.10;99.90
31783;DHT22;18351;47.560;9.708;2023-06-22T05:58:03;26.00;99.90
31783;DHT22;18351;47.560;9.708;2023-06-22T06:00:29;27.00;99.90
31783;DHT22;18351;47.560;9.708;2023-06-22T06:02:55;28.00;99.90
31783;DHT22;18351;47.560;9.708;2023-06-22T06:05:20;28.80;98.90
31783;DHT22;18351;47.560;9.708;2023-06-22T06:07:46;29.60;96.20
31783;DHT22;18351;47.560;9.708;2023-06-22T06:10:12;30.10;94.00
31783;DHT22;18351;47.560;9.708;2023-06-22T06:12:37;30.30;92.00
31783;DHT22;18351;47.560;9.708;2023-06-22T06:15:04;30.40;90.30
31783;DHT22;18351;47.560;9.708;2023-06-22T06:17:30;30.70;88.70
31783;DHT22;18351;47.560;9.708;2023-06-22T06:19:55;30.90;86.50
31783;DHT22;18351;47.560;9.708;2023-06-22T06:22:21;31.10;85.40
31783;DHT22;18351;47.560;9.708;2023-06-22T06:24:49;31.30;81.80
31783;DHT22;18351;47.560;9.708;2023-06-22T06:27:15;31.40;80.80
31783;DHT22;18351;47.560;9.708;2023-06-22T06:29:40;31.50;80.10
31783;DHT22;18351;47.560;9.708;2023-06-22T06:32:06;31.50;79.10
31783;DHT22;18351;47.560;9.708;2023-06-22T06:34:32;31.50;80.30
31783;DHT22;18351;47.560;9.708;2023-06-22T06:36:57;31.50;79.00
31783;DHT22;18351;47.560;9.708;2023-06-22T06:39:23;31.60;78.50
31783;DHT22;18351;47.560;9.708;2023-06-22T06:41:48;31.50;77.90
31783;DHT22;18351;47.560;9.708;2023-06-22T06:44:14;31.50;78.80
31783;DHT22;18351;47.560;9.708;2023-06-22T06:46:39;31.20;78.70
31783;DHT22;18351;47.560;9.708;2023-06-22T06:49:05;30.70;79.70
31783;DHT22;18351;47.560;9.708;2023-06-22T06:51:30;30.10;81.00
31783;DHT22;18351;47.560;9.708;2023-06-22T06:53:56;29.50;82.90
31783;DHT22;18351;47.560;9.708;2023-06-22T06:56:21;28.90;85.30
31783;DHT22;18351;47.560;9.708;2023-06-22T06:58:50;28.50;87.20
31783;DHT22;18351;47.560;9.708;2023-06-22T07:01:16;28.30;89.30
31783;DHT22;18351;47.560;9.708;2023-06-22T07:03:41;28.10;90.20
31783;DHT22;18351;47.560;9.708;2023-06-22T07:06:08;27.80;90.50
31783;DHT22;18351;47.560;9.708;2023-06-22T07:08:34;27.60;91.40
31783;DHT22;18351;47.560;9.708;2023-06-22T07:11:01;27.60;91.80
31783;DHT22;18351;47.560;9.708;2023-06-22T07:13:27;27.50;92.30
31783;DHT22;18351;47.560;9.708;2023-06-22T07:15:53;27.30;92.30
31783;DHT22;18351;47.560;9.708;2023-06-22T07:18:19;27.30;92.50
31783;DHT22;18351;47.560;9.708;2023-06-22T07:20:44;27.20;91.70
31783;DHT22;18351;47.560;9.708;2023-06-22T07:23:10;26.90;92.50
31783;DHT22;18351;47.560;9.708;2023-06-22T07:25:35;26.40;93.90
31783;DHT22;18351;47.560;9.708;2023-06-22T07:28:06;26.30;94.70
31783;DHT22;18351;47.560;9.708;2023-06-22T07:30:32;26.20;95.00
31783;DHT22;18351;47.560;9.708;2023-06-22T07:32:59;26.20;95.60
31783;DHT22;18351;47.560;9.708;2023-06-22T07:35:29;26.10;96.10
31783;DHT22;18351;47.560;9.708;2023-06-22T07:37:54;26.30;96.70
31783;DHT22;18351;47.560;9.708;2023-06-22T07:40:20;26.30;96.50
31783;DHT22;18351;47.560;9.708;2023-06-22T07:42:45;26.50;96.40
31783;DHT22;18351;47.560;9.708;2023-06-22T07:45:13;26.60;96.50
31783;DHT22;18351;47.560;9.708;2023-06-22T07:47:39;26.60;96.30
31783;DHT22;18351;47.560;9.708;2023-06-22T07:50:05;26.60;96.40
31783;DHT22;18351;47.560;9.708;2023-06-22T07:52:31;26.70;95.60
31783;DHT22;18351;47.560;9.708;2023-06-22T07:54:57;26.80;95.50
31783;DHT22;18351;47.560;9.708;2023-06-22T07:57:22;26.60;94.70
31783;DHT22;18351;47.560;9.708;2023-06-22T07:59:48;26.60;95.00
31783;DHT22;18351;47.560;9.708;2023-06-22T08:02:13;26.60;95.20
31783;DHT22;18351;47.560;9.708;2023-06-22T08:04:39;26.70;95.10
31783;DHT22;18351;47.560;9.708;2023-06-22T08:07:06;26.90;96.10
31783;DHT22;18351;47.560;9.708;2023-06-22T08:09:32;27.00;96.20
31783;DHT22;18351;47.560;9.708;2023-06-22T08:11:59;27.20;96.20
31783;DHT22;18351;47.560;9.708;2023-06-22T08:14:29;27.20;96.40
31783;DHT22;18351;47.560;9.708;2023-06-22T08:16:57;27.30;96.00
31783;DHT22;18351;47.560;9.708;2023-06-22T08:19:23;27.40;95.90
31783;DHT22;18351;47.560;9.708;2023-06-22T08:21:49;27.50;95.50
31783;DHT22;18351;47.560;9.708;2023-06-22T08:24:14;27.50;95.10
31783;DHT22;18351;47.560;9.708;2023-06-22T08:26:40;27.50;95.50
31783;DHT22;18351;47.560;9.708;2023-06-22T08:29:05;27.40;95.40
31783;DHT22;18351;47.560;9.708;2023-06-22T08:31:31;27.40;95.30
31783;DHT22;18351;47.560;9.708;2023-06-22T08:33:58;27.40;95.70
31783;DHT22;18351;47.560;9.708;2023-06-22T08:36:24;27.50;95.90
31783;DHT22;18351;47.560;9.708;2023-06-22T08:38:50;27.60;95.50
31783;DHT22;18351;47.560;9.708;2023-06-22T08:41:17;27.60;95.70
31783;DHT22;18351;47.560;9.708;2023-06-22T08:43:43;27.40;95.40
31783;DHT22;18351;47.560;9.708;2023-06-22T08:46:10;27.00;95.90
31783;DHT22;18351;47.560;9.708;2023-06-22T08:48:36;26.60;96.80
31783;DHT22;18351;47.560;9.708;2023-06-22T08:51:02;26.10;97.30
31783;DHT22;18351;47.560;9.708;2023-06-22T08:53:28;25.70;98.00
31783;DHT22;18351;47.560;9.708;2023-06-22T08:55:54;25.50;99.10
31783;DHT22;18351;47.560;9.708;2023-06-22T08:58:19;25.50;99.90
31783;DHT22;18351;47.560;9.708;2023-06-22T09:00:46;25.50;99.80
31783;DHT22;18351;47.560;9.708;2023-06-22T09:03:12;25.70;99.80
31783;DHT22;18351;47.560;9.708;2023-06-22T09:05:38;25.90;99.30
31783;DHT22;18351;47.560;9.708;2023-06-22T09:08:04;26.10;98.90
31783;DHT22;18351;47.560;9.708;2023-06-22T09:10:29;26.40;98.80
31783;DHT22;18351;47.560;9.708;2023-06-22T09:12:55;26.50;97.90
31783;DHT22;18351;47.560;9.708;2023-06-22T09:15:20;26.60;97.90
31783;DHT22;18351;47.560;9.708;2023-06-22T09:17:46;26.70;97.60
31783;DHT22;18351;47.560;9.708;2023-06-22T09:20:12;26.90;97.30
31783;DHT22;18351;47.560;9.708;2023-06-22T09:22:37;27.10;97.70
31783;DHT22;18351;47.560;9.708;2023-06-22T09:25:04;27.10;95.70
31783;DHT22;18351;47.560;9.708;2023-06-22T09:27:30;27.00;96.00
31783;DHT22;18351;47.560;9.708;2023-06-22T09:29:55;27.00;95.80
31783;DHT22;18351;47.560;9.708;2023-06-22T09:32:21;27.00;96.40
31783;DHT22;18351;47.560;9.708;2023-06-22T09:34:46;27.00;96.10
31783;DHT22;18351;47.560;9.708;2023-06-22T09:37:12;27.10;96.10
31783;DHT22;18351;47.560;9.708;2023-06-22T09:39:38;27.50;95.40
31783;DHT22;18351;47.560;9.708;2023-06-22T09:42:04;27.90;94.80
31783;DHT22;18351;47.560;9.708;2023-06-22T09:44:30;28.00;94.50
31783;DHT22;18351;47.560;9.708;2023-06-22T09:46:56;28.30;94.90
31783;DHT22;18351;47.560;9.708;2023-06-22T09:49:22;28.70;93.60
31783;DHT22;18351;47.560;9.708;2023-06-22T09:51:47;28.80;92.60
31783;DHT22;18351;47.560;9.708;2023-06-22T09:54:15;29.10;92.90
31783;DHT22;18351;47.560;9.708;2023-06-22T09:56:40;29.30;91.90
31783;DHT22;18351;47.560;9.708;2023-06-22T09:59:06;29.20;91.50
31783;DHT22;18351;47.560;9.708;2023-06-22T10:01:31;29.10;92.20
31783;DHT22;18351;47.560;9.708;2023-06-22T10:03:57;29.30;91.60
31783;DHT22;18351;47.560;9.708;2023-06-22T10:06:23;29.70;91.60
31783;DHT22;18351;47.560;9.708;2023-06-22T10:08:50;29.90;90.30
31783;DHT22;18351;47.560;9.708;2023-06-22T10:11:16;30.20;90.10
31783;DHT22;18351;47.560;9.708;2023-06-22T10:13:42;30.20;88.50
31783;DHT22;18351;47.560;9.708;2023-06-22T10:16:07;29.80;90.10
31783;DHT22;18351;47.560;9.708;2023-06-22T10:18:33;29.50;90.40
31783;DHT22;18351;47.560;9.708;2023-06-22T10:20:58;29.30;90.20
31783;DHT22;18351;47.560;9.708;2023-06-22T10:23:24;29.30;90.10
31783;DHT22;18351;47.560;9.708;2023-06-22T10:25:49;28.90;91.10
31783;DHT22;18351;47.560;9.708;2023-06-22T10:28:15;28.90;91.80
31783;DHT22;18351;47.560;9.708;2023-06-22T10:30:41;29.10;91.10
31783;DHT22;18351;47.560;9.708;2023-06-22T10:33:08;29.30;90.30
31783;DHT22;18351;47.560;9.708;2023-06-22T10:35:34;29.50;90.80
31783;DHT22;18351;47.560;9.708;2023-06-22T10:38:00;29.60;91.20
31783;DHT22;18351;47.560;9.708;2023-06-22T10:40:25;30.10;90.50
31783;DHT22;18351;47.560;9.708;2023-06-22T10:42:51;30.60;88.50
31783;DHT22;18351;47.560;9.708;2023-06-22T10:45:16;31.00;85.70
31783;DHT22;18351;47.560;9.708;2023-06-22T10:47:42;31.20;85.50
31783;DHT22;18351;47.560;9.708;2023-06-22T10:50:08;31.10;83.90
31783;DHT22;18351;47.560;9.708;2023-06-22T10:52:33;30.70;84.90
31783;DHT22;18351;47.560;9.708;2023-06-22T10:54:59;30.90;84.60
31783;DHT22;18351;47.560;9.708;2023-06-22T10:57:25;30.90;83.60
31783;DHT22;18351;47.560;9.708;2023-06-22T10:59:50;30.30;87.00
31783;DHT22;18351;47.560;9.708;2023-06-22T11:02:16;30.60;88.50
31783;DHT22;18351;47.560;9.708;2023-06-22T11:04:41;30.90;83.50
31783;DHT22;18351;47.560;9.708;2023-06-22T11:07:07;31.00;83.40
31783;DHT22;18351;47.560;9.708;2023-06-22T11:09:32;30.90;80.40
31783;DHT22;18351;47.560;9.708;2023-06-22T11:11:58;31.10;80.80
31783;DHT22;18351;47.560;9.708;2023-06-22T11:14:24;31.10;80.70
31783;DHT22;18351;47.560;9.708;2023-06-22T11:16:50;31.30;80.00
31783;DHT22;18351;47.560;9.708;2023-06-22T11:19:16;30.90;83.90
31783;DHT22;18351;47.560;9.708;2023-06-22T11:21:42;30.90;83.50
31783;DHT22;18351;47.560;9.708;2023-06-22T11:24:07;31.20;82.90
31783;DHT22;18351;47.560;9.708;2023-06-22T11:26:33;30.90;83.60
31783;DHT22;18351;47.560;9.708;2023-06-22T11:28:59;30.90;84.70
31783;DHT22;18351;47.560;9.708;2023-06-22T11:31:25;31.10;84.00
31783;DHT22;18351;47.560;9.708;2023-06-22T11:33:50;31.30;81.70
31783;DHT22;18351;47.560;9.708;2023-06-22T11:36:16;31.40;80.10
31783;DHT22;18351;47.560;9.708;2023-06-22T11:38:42;31.50;81.50
31783;DHT22;18351;47.560;9.708;2023-06-22T11:41:09;31.20;80.70
31783;DHT22;18351;47.560;9.708;2023-06-22T11:43:36;31.30;79.90
31783;DHT22;18351;47.560;9.708;2023-06-22T11:46:05;31.40;80.10
31783;DHT22;18351;47.560;9.708;2023-06-22T11:48:31;31.80;81.50
31783;DHT22;18351;47.560;9.708;2023-06-22T11:50:57;31.90;77.70
31783;DHT22;18351;47.560;9.708;2023-06-22T11:53:25;31.90;75.80
31783;DHT22;18351;47.560;9.708;2023-06-22T11:55:50;32.10;77.80
31783;DHT22;18351;47.560;9.708;2023-06-22T11:58:16;32.20;77.20
31783;DHT22;18351;47.560;9.708;2023-06-22T12:00:42;32.40;79.00
31783;DHT22;18351;47.560;9.708;2023-06-22T12:03:08;32.50;79.20
31783;DHT22;18351;47.560;9.708;2023-06-22T12:05:34;32.60;78.90
31783;DHT22;18351;47.560;9.708;2023-06-22T12:08:00;32.70;80.70
31783;DHT22;18351;47.560;9.708;2023-06-22T12:10:26;32.80;77.70
31783;DHT22;18351;47.560;9.708;2023-06-22T12:12:53;32.90;76.60
31783;DHT22;18351;47.560;9.708;2023-06-22T12:15:19;32.90;76.70
31783;DHT22;18351;47.560;9.708;2023-06-22T12:17:45;32.40;74.90
31783;DHT22;18351;47.560;9.708;2023-06-22T12:20:11;32.40;77.30
31783;DHT22;18351;47.560;9.708;2023-06-22T12:22:36;32.40;78.80
31783;DHT22;18351;47.560;9.708;2023-06-22T12:25:03;32.20;78.10
31783;DHT22;18351;47.560;9.708;2023-06-22T12:27:29;31.90;78.70
31783;DHT22;18351;47.560;9.708;2023-06-22T12:29:56;31.70;78.60
31783;DHT22;18351;47.560;9.708;2023-06-22T12:32:21;31.60;79.50
31783;DHT22;18351;47.560;9.708;2023-06-22T12:34:47;31.60;79.50
31783;DHT22;18351;47.560;9.708;2023-06-22T12:37:12;31.60;80.60
31783;DHT22;18351;47.560;9.708;2023-06-22T12:39:40;31.60;80.20
31783;DHT22;18351;47.560;9.708;2023-06-22T12:42:06;31.40;78.80
31783;DHT22;18351;47.560;9.708;2023-06-22T12:44:34;31.30;80.60
31783;DHT22;18351;47.560;9.708;2023-06-22T12:47:00;31.40;83.20
31783;DHT22;18351;47.560;9.708;2023-06-22T12:49:25;31.50;82.30
31783;DHT22;18351;47.560;9.708;2023-06-22T12:51:51;31.60;81.40
31783;DHT22;18351;47.560;9.708;2023-06-22T12:54:16;31.60;81.20
31783;DHT22;18351;47.560;9.708;2023-06-22T12:56:42;31.60;81.40
31783;DHT22;18351;47.560;9.708;2023-06-22T12:59:10;31.70;81.60
31783;DHT22;18351;47.560;9.708;2023-06-22T13:01:36;31.70;80.80
31783;DHT22;18351;47.560;9.708;2023-06-22T13:04:02;31.60;81.50
31783;DHT22;18351;47.560;9.708;2023-06-22T13:06:28;31.60;83.10
31783;DHT22;18351;47.560;9.708;2023-06-22T13:08:53;31.60;82.00
31783;DHT22;18351;47.560;9.708;2023-06-22T13:11:19;31.70;81.30
31783;DHT22;18351;47.560;9.708;2023-06-22T13:13:46;31.60;81.50
31783;DHT22;18351;47.560;9.708;2023-06-22T13:16:12;31.60;78.80
31783;DHT22;18351;47.560;9.708;2023-06-22T13:18:38;31.60;80.00
31783;DHT22;18351;47.560;9.708;2023-06-22T13:21:04;31.50;80.10
31783;DHT22;18351;47.560;9.708;2023-06-22T13:23:29;31.50;80.70
31783;DHT22;18351;47.560;9.708;2023-06-22T13:25:55;31.40;80.80
31783;DHT22;18351;47.560;9.708;2023-06-22T13:28:21;31.40;80.70
31783;DHT22;18351;47.560;9.708;2023-06-22T13:30:47;31.50;81.40
31783;DHT22;18351;47.560;9.708;2023-06-22T13:33:13;31.70;80.50
31783;DHT22;18351;47.560;9.708;2023-06-22T13:35:39;31.90;80.00
31783;DHT22;18351;47.560;9.708;2023-06-22T13:38:05;32.10;80.80
31783;DHT22;18351;47.560;9.708;2023-06-22T13:40:30;32.10;78.20
31783;DHT22;18351;47.560;9.708;2023-06-22T13:42:56;32.50;80.50
31783;DHT22;18351;47.560;9.708;2023-06-22T13:45:22;32.60;76.10
31783;DHT22;18351;47.560;9.708;2023-06-22T13:47:48;32.70;75.10
31783;DHT22;18351;47.560;9.708;2023-06-22T13:50:14;32.30;75.30
31783;DHT22;18351;47.560;9.708;2023-06-22T13:52:39;32.40;75.60
31783;DHT22;18351;47.560;9.708;2023-06-22T13:55:05;32.50;74.60
31783;DHT22;18351;47.560;9.708;2023-06-22T13:57:32;32.70;77.10
31783;DHT22;18351;47.560;9.708;2023-06-22T13:59:58;32.80;69.40
31783;DHT22;18351;47.560;9.708;2023-06-22T14:02:25;32.80;69.20
31783;DHT22;18351;47.560;9.708;2023-06-22T14:04:51;32.80;70.00
31783;DHT22;18351;47.560;9.708;2023-06-22T14:07:17;32.60;69.70
31783;DHT22;18351;47.560;9.708;2023-06-22T14:09:44;32.50;70.00
31783;DHT22;18351;47.560;9.708;2023-06-22T14:12:10;32.00;70.20
31783;DHT22;18351;47.560;9.708;2023-06-22T14:14:36;32.00;72.60
31783;DHT22;18351;47.560;9.708;2023-06-22T14:17:02;32.20;75.10
31783;DHT22;18351;47.560;9.708;2023-06-22T14:19:28;32.20;74.20
31783;DHT22;18351;47.560;9.708;2023-06-22T14:21:53;32.20;71.80
31783;DHT22;18351;47.560;9.708;2023-06-22T14:24:19;32.20;71.70
31783;DHT22;18351;47.560;9.708;2023-06-22T14:26:44;32.30;72.30
31783;DHT22;18351;47.560;9.708;2023-06-22T14:29:10;32.30;70.50
31783;DHT22;18351;47.560;9.708;2023-06-22T14:31:36;32.30;71.90
31783;DHT22;18351;47.560;9.708;2023-06-22T14:34:01;32.30;72.10
31783;DHT22;18351;47.560;9.708;2023-06-22T14:36:28;32.30;71.40
31783;DHT22;18351;47.560;9.708;2023-06-22T14:38:54;32.40;72.60
31783;DHT22;18351;47.560;9.708;2023-06-22T14:41:20;32.20;71.30
31783;DHT22;18351;47.560;9.708;2023-06-22T14:43:46;32.10;72.40
31783;DHT22;18351;47.560;9.708;2023-06-22T14:46:16;32.00;73.40
31783;DHT22;18351;47.560;9.708;2023-06-22T14:48:42;31.80;72.60
31783;DHT22;18351;47.560;9.708;2023-06-22T14:51:09;31.60;73.60
31783;DHT22;18351;47.560;9.708;2023-06-22T14:53:35;31.30;73.60
31783;DHT22;18351;47.560;9.708;2023-06-22T14:56:01;31.10;74.70
31783;DHT22;18351;47.560;9.708;2023-06-22T14:58:33;31.00;75.80
31783;DHT22;18351;47.560;9.708;2023-06-22T15:01:02;30.80;77.20
31783;DHT22;18351;47.560;9.708;2023-06-22T15:03:29;30.70;78.20
31783;DHT22;18351;47.560;9.708;2023-06-22T15:05:56;30.50;78.20
31783;DHT22;18351;47.560;9.708;2023-06-22T15:08:22;30.50;76.70
31783;DHT22;18351;47.560;9.708;2023-06-22T15:10:48;30.40;76.20
31783;DHT22;18351;47.560;9.708;2023-06-22T15:13:13;30.30;77.70
31783;DHT22;18351;47.560;9.708;2023-06-22T15:15:39;30.30;79.20
31783;DHT22;18351;47.560;9.708;2023-06-22T15:18:04;30.30;79.20
31783;DHT22;18351;47.560;9.708;2023-06-22T15:20:30;30.10;77.90
31783;DHT22;18351;47.560;9.708;2023-06-22T15:22:57;30.00;78.90
31783;DHT22;18351;47.560;9.708;2023-06-22T15:25:22;29.90;79.90
31783;DHT22;18351;47.560;9.708;2023-06-22T15:27:48;29.70;79.90